createdAt,value
2022-11-29T00:01:36.123Z,93.00
2022-11-29T00:04:04.540Z,101.45
2022-11-29T00:06:34.698Z,127.38
2022-11-29T00:09:07.594Z,72.03
2022-11-29T00:11:56.491Z,72.13
2022-11-29T00:14:25.261Z,80.95
2022-11-29T00:16:56.194Z,101.65
2022-11-29T00:19:23.448Z,116.53
2022-11-29T00:21:50.764Z,97.85
2022-11-29T00:24:17.655Z,119.72
2022-11-29T00:26:44.584Z,78.50
2022-11-29T00:29:13.066Z,98.88
2022-11-29T00:31:41.182Z,72.47
2022-11-29T00:34:10.508Z,78.82
2022-11-29T00:36:38.511Z,101.68
2022-11-29T00:39:06.084Z,70.40
2022-11-29T00:41:33.558Z,95.90
2022-11-29T00:44:00.779Z,98.72
2022-11-29T00:46:27.637Z,93.30
2022-11-29T00:48:54.341Z,74.25
2022-11-29T00:51:21.116Z,89.80
2022-11-29T00:53:47.905Z,118.53
2022-11-29T00:56:14.666Z,122.10
2022-11-29T00:58:43.520Z,79.53
2022-11-29T01:01:11.645Z,75.63
2022-11-29T01:03:38.664Z,80.10
2022-11-29T01:06:10.267Z,90.05
2022-11-29T01:08:37.862Z,93.93
2022-11-29T01:11:14.827Z,88.57
2022-11-29T01:13:43.396Z,102.88
2022-11-29T01:16:10.826Z,70.90
2022-11-29T01:18:38.454Z,94.80
2022-11-29T01:21:13.627Z,101.03
2022-11-29T01:23:41.121Z,64.60
2022-11-29T01:26:13.841Z,68.93
2022-11-29T01:28:42.122Z,68.22
2022-11-29T01:31:29.612Z,78.63
2022-11-29T01:34:00.289Z,71.53
2022-11-29T01:36:27.774Z,68.50
2022-11-29T01:38:54.701Z,75.80
2022-11-29T01:41:27.010Z,71.53
2022-11-29T01:46:43.688Z,86.40
2022-11-29T01:49:15.080Z,66.70
2022-11-29T01:51:50.329Z,63.28
2022-11-29T01:54:18.918Z,108.82
2022-11-29T01:56:50.266Z,70.38
2022-11-29T01:59:22.116Z,88.68
2022-11-29T02:01:49.129Z,71.05
2022-11-29T02:04:18.470Z,88.57
2022-11-29T02:06:46.847Z,97.30
2022-11-29T02:09:20.990Z,122.57
2022-11-29T02:12:09.462Z,152.32
2022-11-29T02:15:07.210Z,120.03
2022-11-29T02:18:33.754Z,105.50
2022-11-29T02:21:19.802Z,281.98
2022-11-29T02:24:30.839Z,200.27
2022-11-29T02:27:37.579Z,97.22
2022-11-29T02:30:47.693Z,105.78
2022-11-29T02:36:34.333Z,106.35
2022-11-29T02:39:39.277Z,149.57
2022-11-29T02:42:24.708Z,81.15
2022-11-29T02:45:04.860Z,74.63
2022-11-29T02:48:17.686Z,236.63
2022-11-29T02:51:06.373Z,179.85
2022-11-29T02:53:51.215Z,293.48
2022-11-29T02:56:27.442Z,159.32
2022-11-29T02:59:34.677Z,349.52
2022-11-29T03:02:10.249Z,125.78
2022-11-29T03:04:49.921Z,172.43
2022-11-29T03:07:44.462Z,155.77
2022-11-29T03:10:30.531Z,172.23
2022-11-29T03:12:59.796Z,107.85
2022-11-29T03:15:34.523Z,167.00
2022-11-29T03:18:31.999Z,179.93
2022-11-29T03:21:32.466Z,129.77
2022-11-29T03:24:09.269Z,156.05
2022-11-29T03:26:57.724Z,127.63
2022-11-29T03:29:35.928Z,284.10
2022-11-29T03:32:15.293Z,176.98
2022-11-29T03:35:02.728Z,129.50
2022-11-29T03:37:53.187Z,81.85
2022-11-29T03:40:31.630Z,83.22
2022-11-29T03:43:09.448Z,75.55
2022-11-29T03:45:45.480Z,82.85
2022-11-29T03:48:23.598Z,78.72
2022-11-29T03:50:56.596Z,73.22
2022-11-29T03:53:42.455Z,68.07
2022-11-29T03:56:34.947Z,83.82
2022-11-29T03:59:30.052Z,105.55
2022-11-29T04:02:14.648Z,118.97
2022-11-29T04:04:47.490Z,115.40
2022-11-29T04:07:50.646Z,65.18
2022-11-29T04:11:07.681Z,80.28
2022-11-29T04:14:00.659Z,71.82
2022-11-29T04:16:51.770Z,72.63
2022-11-29T04:19:52.524Z,90.03
2022-11-29T04:22:40.468Z,99.38
2022-11-29T04:25:52.775Z,113.53
2022-11-29T04:29:00.667Z,92.32
2022-11-29T04:32:18.303Z,85.90
2022-11-29T04:35:33.306Z,92.50
2022-11-29T04:38:29.034Z,81.68
2022-11-29T04:41:36.351Z,80.68
2022-11-29T04:44:57.221Z,75.85
2022-11-29T04:47:56.403Z,82.57
2022-11-29T04:51:01.816Z,90.70
2022-11-29T04:54:01.644Z,77.38
2022-11-29T04:56:42.796Z,272.83
2022-11-29T04:59:25.426Z,156.80
2022-11-29T05:02:51.210Z,109.20
2022-11-29T05:05:43.048Z,186.23
2022-11-29T05:08:43.809Z,156.80
2022-11-29T05:11:48.095Z,154.32
2022-11-29T05:14:49.073Z,177.15
2022-11-29T05:17:33.023Z,266.05
2022-11-29T05:20:34.198Z,227.90
2022-11-29T05:23:44.250Z,154.88
2022-11-29T05:26:38.345Z,135.50
2022-11-29T05:29:19.569Z,192.88
2022-11-29T05:32:30.017Z,163.95
2022-11-29T05:35:27.204Z,188.35
2022-11-29T05:38:35.053Z,239.40
2022-11-29T05:41:21.989Z,143.38
2022-11-29T05:44:10.274Z,275.83
2022-11-29T05:47:00.044Z,148.70
2022-11-29T05:50:21.655Z,100.38
2022-11-29T05:53:16.923Z,261.60
2022-11-29T05:56:18.695Z,153.40
2022-11-29T05:58:56.936Z,191.68
2022-11-29T06:01:53.431Z,215.20
2022-11-29T06:04:57.279Z,213.48
2022-11-29T06:08:07.084Z,185.35
2022-11-29T06:10:52.353Z,196.55
2022-11-29T06:13:36.747Z,166.47
2022-11-29T06:16:28.540Z,133.40
2022-11-29T06:19:07.252Z,163.80
2022-11-29T06:21:59.491Z,150.82
2022-11-29T06:24:43.485Z,118.63
2022-11-29T06:27:50.668Z,110.68
2022-11-29T06:30:26.274Z,155.52
2022-11-29T06:33:18.001Z,121.82
2022-11-29T06:36:00.940Z,141.73
2022-11-29T06:38:30.843Z,163.23
2022-11-29T06:41:02.078Z,169.40
2022-11-29T06:43:30.320Z,81.78
2022-11-29T06:46:26.725Z,143.68
2022-11-29T06:49:22.103Z,173.35
2022-11-29T06:52:01.790Z,146.68
2022-11-29T06:55:03.755Z,144.57
2022-11-29T06:57:56.364Z,138.05
2022-11-29T07:00:51.254Z,104.05
2022-11-29T07:03:48.680Z,132.98
2022-11-29T07:06:25.938Z,79.15
2022-11-29T07:09:00.985Z,95.50
2022-11-29T07:11:28.728Z,140.13
2022-11-29T07:13:55.941Z,66.05
2022-11-29T07:16:47.481Z,72.22
2022-11-29T07:22:21.688Z,126.88
2022-11-29T07:25:12.933Z,122.15
2022-11-29T07:30:39.591Z,74.32
2022-11-29T07:33:21.159Z,199.90
2022-11-29T07:36:17.972Z,123.35
2022-11-29T07:39:01.432Z,116.53
2022-11-29T07:42:00.432Z,109.38
2022-11-29T07:45:06.696Z,85.88
2022-11-29T07:47:35.982Z,96.72
2022-11-29T07:50:04.345Z,130.18
2022-11-29T07:52:31.166Z,123.63
2022-11-29T07:54:59.139Z,134.25
2022-11-29T07:57:25.834Z,112.25
2022-11-29T07:59:52.564Z,45.67
2022-11-29T08:02:30.906Z,95.80
2022-11-29T08:04:58.411Z,174.02
2022-11-29T08:07:25.481Z,194.50
2022-11-29T08:09:52.229Z,154.15
2022-11-29T08:12:19.192Z,123.07
2022-11-29T08:14:46.119Z,154.25
2022-11-29T08:17:13.055Z,86.90
2022-11-29T08:19:39.795Z,127.90
2022-11-29T08:22:06.721Z,108.13
2022-11-29T08:24:33.476Z,162.10
2022-11-29T08:27:00.382Z,168.68
2022-11-29T08:29:27.530Z,180.02
2022-11-29T08:31:54.791Z,129.93
2022-11-29T08:34:23.984Z,151.30
2022-11-29T08:36:51.699Z,145.57
2022-11-29T08:39:18.448Z,178.70
2022-11-29T08:41:45.219Z,87.93
2022-11-29T08:44:12.074Z,131.63
2022-11-29T08:46:57.188Z,162.80
2022-11-29T08:49:23.928Z,148.23
2022-11-29T08:51:53.359Z,144.48
2022-11-29T08:54:20.142Z,148.50
2022-11-29T08:57:23.581Z,134.95
2022-11-29T08:59:33.798Z,167.23
2022-11-29T09:02:00.981Z,122.95
2022-11-29T09:04:27.796Z,143.02
2022-11-29T09:06:54.518Z,129.38
2022-11-29T09:09:21.927Z,165.90
2022-11-29T09:11:49.745Z,173.02
2022-11-29T09:14:17.595Z,157.18
2022-11-29T09:16:44.365Z,114.97
2022-11-29T09:19:14.512Z,148.30
2022-11-29T09:21:41.465Z,109.53
2022-11-29T09:24:09.321Z,122.10
2022-11-29T09:26:38.090Z,101.70
2022-11-29T09:29:06.716Z,118.05
2022-11-29T09:31:35.083Z,130.30
2022-11-29T09:34:02.069Z,113.85
2022-11-29T09:36:30.845Z,133.85
2022-11-29T09:39:02.543Z,140.55
2022-11-29T09:41:48.678Z,128.38
2022-11-29T09:44:45.353Z,99.60
2022-11-29T09:47:33.478Z,134.00
2022-11-29T09:50:37.107Z,87.93
2022-11-29T09:53:27.692Z,70.25
2022-11-29T09:56:25.711Z,65.60
2022-11-29T09:59:01.221Z,79.90
2022-11-29T10:01:34.617Z,76.43
2022-11-29T10:04:10.116Z,96.43
2022-11-29T10:06:45.678Z,63.72
2022-11-29T10:10:07.470Z,60.45
2022-11-29T10:12:46.105Z,63.13
2022-11-29T10:17:59.977Z,80.90
2022-11-29T10:20:36.505Z,74.40
2022-11-29T10:23:33.829Z,71.65
2022-11-29T10:26:01.051Z,79.50
2022-11-29T10:28:33.516Z,62.05
2022-11-29T10:34:10.639Z,61.17
2022-11-29T10:36:46.724Z,69.43
2022-11-29T10:39:42.185Z,68.00
2022-11-29T10:42:40.959Z,61.42
2022-11-29T10:45:30.520Z,59.60
2022-11-29T10:48:07.874Z,72.78
2022-11-29T10:50:37.336Z,53.17
2022-11-29T10:53:13.694Z,66.60
2022-11-29T10:55:48.608Z,108.90
2022-11-29T10:58:23.372Z,67.22
2022-11-29T11:01:00.148Z,101.40
2022-11-29T11:03:53.382Z,71.93
2022-11-29T11:06:28.490Z,84.80
2022-11-29T11:09:12.464Z,89.30
2022-11-29T11:11:40.271Z,78.53
2022-11-29T11:14:25.464Z,57.58
2022-11-29T11:16:53.944Z,24.92
2022-11-29T11:19:34.700Z,22.92
2022-11-29T11:22:04.079Z,51.70
2022-11-29T11:24:41.842Z,48.72
2022-11-29T11:27:08.687Z,64.35
2022-11-29T11:29:42.426Z,72.15
2022-11-29T11:32:19.620Z,57.88
2022-11-29T11:35:00.628Z,77.13
2022-11-29T11:37:30.052Z,77.28
2022-11-29T11:40:01.391Z,48.20
2022-11-29T11:42:40.979Z,56.38
2022-11-29T11:45:27.301Z,64.03
2022-11-29T11:48:02.999Z,66.78
2022-11-29T11:50:34.903Z,38.25
2022-11-29T11:53:18.217Z,42.97
2022-11-29T11:56:01.030Z,58.33
2022-11-29T11:58:45.830Z,52.65
2022-11-29T12:01:12.545Z,48.80
2022-11-29T12:03:51.119Z,46.35
2022-11-29T12:08:48.403Z,56.08
2022-11-29T12:11:18.877Z,46.92
2022-11-29T12:13:53.096Z,51.13
2022-11-29T12:16:30.472Z,44.22
2022-11-29T12:19:26.962Z,35.53
2022-11-29T12:22:06.710Z,37.95
2022-11-29T12:24:54.143Z,41.42
2022-11-29T12:27:21.271Z,40.90
2022-11-29T12:29:48.266Z,43.40
2022-11-29T12:32:41.145Z,41.72
2022-11-29T12:35:42.077Z,50.58
2022-11-29T12:38:37.408Z,46.17
2022-11-29T12:41:31.552Z,48.55
2022-11-29T12:44:29.545Z,52.50
2022-11-29T12:47:38.176Z,47.58
2022-11-29T12:50:37.931Z,52.83
2022-11-29T12:53:34.741Z,45.60
2022-11-29T12:56:25.839Z,50.85
2022-11-29T12:59:32.003Z,54.67
2022-11-29T13:02:42.623Z,69.30
2022-11-29T13:05:38.616Z,60.50
2022-11-29T13:08:38.201Z,62.42
2022-11-29T13:11:14.457Z,58.03
2022-11-29T13:13:45.179Z,57.92
2022-11-29T13:17:17.444Z,58.78
2022-11-29T13:19:58.053Z,58.42
2022-11-29T13:22:52.222Z,53.88
2022-11-29T13:25:28.352Z,58.30
2022-11-29T13:28:04.815Z,63.42
2022-11-29T13:30:34.852Z,63.00
2022-11-29T13:33:24.977Z,70.18
2022-11-29T13:36:21.358Z,57.88
2022-11-29T13:39:28.355Z,63.75
2022-11-29T13:42:21.986Z,61.55
2022-11-29T13:45:17.532Z,69.80
2022-11-29T13:47:51.004Z,62.80
2022-11-29T13:50:46.169Z,70.68
2022-11-29T13:53:19.129Z,68.60
2022-11-29T13:56:00.196Z,59.55
2022-11-29T13:58:38.118Z,73.07
2022-11-29T14:01:12.407Z,61.17
2022-11-29T14:03:41.882Z,68.57
2022-11-29T14:06:31.345Z,60.13
2022-11-29T14:09:22.400Z,73.28
2022-11-29T14:12:18.924Z,67.13
2022-11-29T14:15:05.728Z,67.13
2022-11-29T14:17:45.344Z,72.88
2022-11-29T14:20:24.929Z,64.32
2022-11-29T14:23:07.404Z,70.93
2022-11-29T14:25:51.615Z,69.13
2022-11-29T14:31:02.811Z,65.57
2022-11-29T14:33:51.790Z,63.10
2022-11-29T14:36:45.460Z,68.45
2022-11-29T14:39:29.941Z,73.68
2022-11-29T14:42:18.707Z,80.53
2022-11-29T14:44:54.482Z,67.07
2022-11-29T14:47:48.537Z,78.88
2022-11-29T14:50:39.044Z,83.05
2022-11-29T14:53:26.668Z,64.00
2022-11-29T14:56:31.103Z,82.43
2022-11-29T14:59:47.636Z,62.45
2022-11-29T15:02:34.760Z,71.13
2022-11-29T15:05:29.056Z,76.50
2022-11-29T15:08:37.763Z,58.28
2022-11-29T15:11:27.080Z,76.90
2022-11-29T15:14:37.946Z,85.07
2022-11-29T15:17:10.731Z,93.50
2022-11-29T15:20:28.056Z,80.57
2022-11-29T15:23:01.041Z,81.18
2022-11-29T15:25:31.886Z,75.47
2022-11-29T15:28:01.788Z,83.57
2022-11-29T15:30:39.133Z,90.53
2022-11-29T15:33:19.360Z,81.72
2022-11-29T15:35:53.164Z,86.00
2022-11-29T15:38:22.699Z,88.93
2022-11-29T15:40:53.071Z,73.10
2022-11-29T15:43:37.704Z,69.18
2022-11-29T15:46:04.633Z,89.70
2022-11-29T15:48:32.867Z,85.47
2022-11-29T15:51:31.310Z,71.82
2022-11-29T15:54:13.269Z,72.85
2022-11-29T15:56:54.800Z,64.85
2022-11-29T15:59:39.346Z,68.78
2022-11-29T16:02:29.480Z,70.60
2022-11-29T16:05:01.947Z,74.15
2022-11-29T16:07:34.351Z,69.07
2022-11-29T16:10:19.591Z,77.68
2022-11-29T16:13:04.796Z,54.80
2022-11-29T16:15:38.978Z,55.97
2022-11-29T16:18:18.905Z,63.30
2022-11-29T16:21:00.070Z,64.90
2022-11-29T16:23:44.187Z,74.30
2022-11-29T16:26:28.409Z,67.05
2022-11-29T16:28:57.965Z,64.78
2022-11-29T16:31:38.345Z,71.28
2022-11-29T16:34:26.612Z,73.20
2022-11-29T16:37:20.445Z,59.75
2022-11-29T16:39:51.030Z,52.35
2022-11-29T16:42:32.298Z,40.13
2022-11-29T16:45:04.525Z,65.78
2022-11-29T16:47:58.003Z,71.60
2022-11-29T16:50:34.917Z,69.28
2022-11-29T16:53:38.415Z,54.95
2022-11-29T16:56:10.292Z,66.28
2022-11-29T16:59:17.144Z,61.05
2022-11-29T17:01:29.068Z,59.80
2022-11-29T17:03:59.949Z,53.65
2022-11-29T17:06:29.533Z,64.25
2022-11-29T17:08:59.358Z,61.72
2022-11-29T17:11:26.178Z,59.95
2022-11-29T17:13:53.559Z,58.45
2022-11-29T17:16:23.845Z,55.40
2022-11-29T17:18:52.806Z,38.53
2022-11-29T17:21:22.953Z,55.75
2022-11-29T17:23:51.250Z,57.58
2022-11-29T17:26:19.018Z,54.70
2022-11-29T17:28:48.431Z,46.70
2022-11-29T17:31:22.239Z,36.00
2022-11-29T17:33:50.070Z,58.78
2022-11-29T17:36:20.477Z,58.60
2022-11-29T17:38:48.573Z,63.72
2022-11-29T17:41:20.827Z,56.60
2022-11-29T17:46:19.121Z,54.53
2022-11-29T17:48:46.312Z,57.15
2022-11-29T17:51:43.608Z,61.97
2022-11-29T17:54:04.375Z,65.80
2022-11-29T17:56:31.260Z,68.40
2022-11-29T17:59:02.301Z,51.22
2022-11-29T18:01:33.141Z,44.40
2022-11-29T18:04:03.825Z,67.80
2022-11-29T18:06:39.639Z,60.42
2022-11-29T18:09:09.235Z,63.53
2022-11-29T18:11:47.984Z,66.22
2022-11-29T18:14:28.041Z,73.22
2022-11-29T18:16:55.006Z,62.03
2022-11-29T18:19:23.079Z,62.78
2022-11-29T18:21:51.092Z,64.80
2022-11-29T18:24:18.484Z,51.45
2022-11-29T18:26:45.883Z,46.50
2022-11-29T18:29:12.644Z,50.55
2022-11-29T18:31:43.883Z,30.35
2022-11-29T18:34:13.547Z,58.45
2022-11-29T18:36:45.012Z,68.75
2022-11-29T18:39:19.499Z,66.07
2022-11-29T18:41:49.062Z,66.72
2022-11-29T18:44:19.008Z,70.75
2022-11-29T18:46:46.519Z,50.45
2022-11-29T18:49:16.762Z,64.60
2022-11-29T18:51:45.918Z,57.28
2022-11-29T18:54:18.380Z,45.53
2022-11-29T18:56:46.221Z,60.22
2022-11-29T18:59:19.519Z,64.85
2022-11-29T19:01:48.312Z,62.28
2022-11-29T19:04:21.141Z,77.57
2022-11-29T19:06:48.732Z,74.38
2022-11-29T19:09:21.186Z,72.55
2022-11-29T19:11:51.380Z,69.03
2022-11-29T19:14:19.199Z,62.30
2022-11-29T19:16:49.043Z,70.57
2022-11-29T19:19:15.821Z,81.68
2022-11-29T19:21:42.817Z,45.65
2022-11-29T19:24:17.601Z,40.05
2022-11-29T19:26:47.413Z,43.08
2022-11-29T19:29:15.480Z,40.47
2022-11-29T19:31:42.894Z,42.95
2022-11-29T19:34:10.226Z,48.90
2022-11-29T19:36:43.694Z,62.45
2022-11-29T19:39:14.443Z,50.53
2022-11-29T19:41:45.468Z,82.15
2022-11-29T19:44:13.141Z,63.25
2022-11-29T19:46:47.024Z,68.47
2022-11-29T19:49:14.611Z,34.80
2022-11-29T19:51:42.760Z,79.28
2022-11-29T19:54:10.757Z,61.40
2022-11-29T19:56:38.977Z,50.28
2022-11-29T19:59:08.063Z,44.53
2022-11-29T20:01:40.861Z,49.60
2022-11-29T20:04:10.437Z,38.95
2022-11-29T20:06:38.231Z,45.47
2022-11-29T20:09:06.448Z,44.33
2022-11-29T20:11:33.539Z,74.85
2022-11-29T20:14:03.416Z,59.42
2022-11-29T20:16:31.747Z,52.67
2022-11-29T20:18:59.579Z,90.22
2022-11-29T20:21:33.764Z,68.43
2022-11-29T20:24:05.015Z,75.55
2022-11-29T20:26:35.099Z,69.72
2022-11-29T20:29:02.939Z,46.97
2022-11-29T20:31:32.908Z,61.08
2022-11-29T20:34:00.118Z,70.85
2022-11-29T20:37:25.780Z,66.30
2022-11-29T20:40:19.400Z,43.65
2022-11-29T20:43:31.135Z,24.02
2022-11-29T20:45:58.075Z,35.22
2022-11-29T20:48:25.738Z,65.07
2022-11-29T20:51:02.770Z,92.47
2022-11-29T20:53:44.152Z,87.53
2022-11-29T20:56:12.461Z,67.95
2022-11-29T20:58:40.099Z,61.03
2022-11-29T21:01:07.642Z,50.88
2022-11-29T21:03:34.845Z,29.88
2022-11-29T21:06:04.601Z,82.85
2022-11-29T21:08:31.609Z,97.47
2022-11-29T21:11:09.131Z,106.93
2022-11-29T21:13:36.751Z,61.13
2022-11-29T21:16:04.676Z,79.05
2022-11-29T21:18:32.545Z,75.63
2022-11-29T21:21:10.970Z,45.17
2022-11-29T21:24:02.237Z,82.68
2022-11-29T21:29:16.580Z,26.13
2022-11-29T21:31:45.320Z,72.95
2022-11-29T21:34:12.490Z,83.20
2022-11-29T21:36:39.990Z,61.10
2022-11-29T21:39:12.584Z,84.43
2022-11-29T21:41:40.374Z,83.10
2022-11-29T21:44:08.192Z,76.25
2022-11-29T21:46:36.022Z,36.90
2022-11-29T21:49:02.962Z,78.47
2022-11-29T21:51:29.738Z,76.68
2022-11-29T21:53:56.455Z,67.50
2022-11-29T21:56:23.167Z,80.65
2022-11-29T21:58:49.933Z,82.45
2022-11-29T22:01:20.178Z,85.07
2022-11-29T22:03:47.587Z,95.70
2022-11-29T22:06:20.799Z,96.53
2022-11-29T22:08:48.819Z,84.95
2022-11-29T22:11:31.877Z,73.40
2022-11-29T22:14:14.850Z,79.90
2022-11-29T22:16:51.609Z,75.80
2022-11-29T22:19:31.182Z,88.72
2022-11-29T22:22:01.843Z,78.20
2022-11-29T22:24:32.630Z,76.95
2022-11-29T22:26:59.787Z,74.97
2022-11-29T22:29:26.558Z,79.55
2022-11-29T22:31:55.995Z,68.30
2022-11-29T22:34:25.227Z,72.45
2022-11-29T22:36:52.391Z,73.38
2022-11-29T22:39:19.223Z,86.75
2022-11-29T22:41:53.622Z,82.05
2022-11-29T22:44:21.358Z,95.95
2022-11-29T22:46:48.339Z,82.10
2022-11-29T22:49:15.215Z,74.78
2022-11-29T22:51:42.008Z,86.50
2022-11-29T22:54:17.899Z,86.47
2022-11-29T22:56:46.167Z,83.28
2022-11-29T22:59:13.135Z,87.53
2022-11-29T23:01:41.829Z,86.13
2022-11-29T23:04:11.010Z,79.05
2022-11-29T23:06:44.587Z,78.82
2022-11-29T23:09:16.592Z,64.95
2022-11-29T23:14:13.121Z,78.15
2022-11-29T23:16:40.650Z,69.95
2022-11-29T23:19:07.501Z,71.70
2022-11-29T23:21:40.691Z,72.10
2022-11-29T23:24:08.003Z,69.90
2022-11-29T23:26:41.536Z,61.85
2022-11-29T23:29:12.778Z,62.58
2022-11-29T23:31:40.103Z,73.75
2022-11-29T23:34:07.867Z,60.55
2022-11-29T23:36:34.915Z,52.80
2022-11-29T23:39:05.597Z,55.20
2022-11-29T23:41:33.675Z,57.47
2022-11-29T23:44:00.453Z,52.90
2022-11-29T23:46:27.320Z,54.25
2022-11-29T23:48:54.280Z,49.50
2022-11-29T23:51:21.314Z,50.53
2022-11-29T23:53:53.831Z,49.30
2022-11-29T23:56:22.391Z,55.65
2022-11-29T23:58:49.379Z,45.60
